Borough Green, United Kingdom
Current Conditions -  °F | °C
As of 6:50 AM on Saturday 25 Oct 2014 (Local Time) from EGLC Reporting Station
Scattered Clouds Scattered Clouds  
Wind Chill: 50°   Ceiling: Unl
Heat Index: 50°   Visibility: 6mi
Dew Point: 46°   Wind: 6mph
Humidity: 87%   Direction: 240°WSW
Pressure: 30.03"   Gusts: NA
Location:  51.29°N, 0.3°E
Report Text: EGLC 250550Z 24005KT 9999 SCT040 10/08 Q1017
Loading
Personal Weather Stations






























Interactive Weather Map
Tropical Storm Tracking
New forecast layout! Learn more

10-Day Weather Forecast

Advertisements
Track Severe Weather on mobile